Time;durP1;ratioP1;P1;durP2;ratioP2;P2;SDS_P1;SDS_P2;PMS_P1;PMS_P2;Temp;Humidity;BMP_temperature;BMP_pressure;BME280_temperature;BME280_humidity;BME280_pressure;Samples;Min_cycle;Max_cycle;Signal;HPM_P1;HPM_P2
2021/08/08 00:02:19;;;;;;;7.60;3.35;;;;;;;25.02;52.16;99245.69;4971009;28;20071;-83
2021/08/08 00:04:48;;;;;;;7.25;3.00;;;;;;;25.06;52.09;99250.47;4975361;28;20053;-83
2021/08/08 00:07:16;;;;;;;7.85;3.15;;;;;;;24.94;52.08;99249.34;4974831;28;20039;-82
2021/08/08 00:09:45;;;;;;;7.10;2.80;;;;;;;24.88;52.30;99250.09;4974864;28;20557;-83
2021/08/08 00:12:12;;;;;;;3.88;2.97;;;;;;;24.95;52.24;99252.81;4957350;28;20043;-83
2021/08/08 00:14:39;;;;;;;8.23;3.28;;;;;;;25.08;52.23;99259.09;4974586;28;20490;-83
2021/08/08 00:17:06;;;;;;;4.50;2.78;;;;;;;25.07;52.59;99257.44;4974851;28;20129;-83
2021/08/08 00:19:33;;;;;;;8.25;2.55;;;;;;;25.05;52.35;99254.13;4974497;28;20051;-83
2021/08/08 00:22:00;;;;;;;7.05;3.60;;;;;;;24.98;52.83;99257.75;4975056;28;20438;-83
2021/08/08 00:24:27;;;;;;;7.20;3.40;;;;;;;24.83;53.44;99260.53;4974198;28;20453;-83
2021/08/08 00:26:55;;;;;;;7.88;3.58;;;;;;;24.83;53.51;99256.00;4975089;28;20051;-83
2021/08/08 00:29:23;;;;;;;5.40;2.97;;;;;;;24.89;53.47;99254.41;4957102;28;20047;-83
2021/08/08 00:31:50;;;;;;;7.50;3.22;;;;;;;24.64;54.66;99259.31;4974045;28;20043;-83
2021/08/08 00:34:17;;;;;;;8.07;2.90;;;;;;;24.60;54.98;99260.72;4956828;28;20406;-83
2021/08/08 00:36:46;;;;;;;7.82;3.05;;;;;;;24.65;54.95;99255.63;4956935;28;20125;-83
2021/08/08 00:39:17;;;;;;;5.18;2.83;;;;;;;24.70;54.77;99252.41;4956635;28;20551;-82
2021/08/08 00:41:44;;;;;;;7.60;3.42;;;;;;;24.42;55.72;99255.84;4957219;28;20053;-83
2021/08/08 00:44:11;;;;;;;5.05;2.85;;;;;;;24.44;56.19;99256.47;4956940;28;20066;-83
2021/08/08 00:46:39;;;;;;;7.43;3.42;;;;;;;24.66;55.41;99256.44;4956635;28;20517;-83
2021/08/08 00:49:07;;;;;;;4.35;2.47;;;;;;;24.67;55.94;99252.81;4956948;28;20051;-83
2021/08/08 00:51:34;;;;;;;7.13;3.40;;;;;;;24.60;55.75;99254.56;4955971;28;20053;-83
2021/08/08 00:54:01;;;;;;;5.80;2.97;;;;;;;24.52;56.18;99261.69;4974196;28;20135;-83
2021/08/08 00:56:30;;;;;;;11.25;3.70;;;;;;;24.53;56.00;99258.00;4956910;28;20541;-83
2021/08/08 00:58:58;;;;;;;5.63;3.08;;;;;;;24.48;56.34;99256.91;4956795;28;20584;-82
2021/08/08 01:01:35;;;;;;;6.18;2.95;;;;;;;24.28;57.00;99267.31;4973827;28;20035;-83
2021/08/08 01:04:08;;;;;;;8.32;2.60;;;;;;;24.33;57.38;99264.94;4956790;28;20066;-83
2021/08/08 01:06:48;;;;;;;6.60;3.78;;;;;;;24.24;57.23;99263.41;4973567;28;20047;-82
2021/08/08 01:09:16;;;;;;;8.65;3.88;;;;;;;24.02;58.19;99268.72;4956691;28;20039;-82
2021/08/08 01:11:43;;;;;;;5.65;3.00;;;;;;;23.85;58.89;99271.75;4956370;28;20043;-82
2021/08/08 01:14:11;;;;;;;5.28;3.15;;;;;;;23.97;58.26;99272.91;4956187;28;20057;-82
2021/08/08 01:16:47;;;;;;;10.13;3.38;;;;;;;24.16;57.41;99263.50;4956392;28;20061;-83
2021/08/08 01:19:21;;;;;;;6.93;4.13;;;;;;;24.09;57.70;99271.44;4956237;28;20449;-82
2021/08/08 01:21:51;;;;;;;5.05;3.78;;;;;;;23.85;58.82;99277.06;4956254;28;20043;-83
2021/08/08 01:24:21;;;;;;;3.88;2.70;;;;;;;23.71;58.85;99281.41;4956093;28;20047;-83
2021/08/08 01:26:49;;;;;;;7.38;3.33;;;;;;;23.77;58.21;99286.81;4956361;28;20509;-83
2021/08/08 01:29:19;;;;;;;6.85;3.10;;;;;;;23.94;57.52;99275.97;4956050;28;20097;-83
2021/08/08 01:31:53;;;;;;;8.95;2.90;;;;;;;23.94;57.30;99281.28;4956169;28;20498;-83
2021/08/08 01:34:25;;;;;;;5.13;3.25;;;;;;;23.63;58.23;99273.50;4955810;28;20047;-82
2021/08/08 01:36:57;;;;;;;3.22;2.58;;;;;;;23.51;58.16;99273.94;4955157;28;20050;-82
2021/08/08 01:39:29;;;;;;;5.10;3.35;;;;;;;23.63;57.74;99284.16;4955873;28;20121;-82
2021/08/08 01:41:58;;;;;;;6.15;3.67;;;;;;;23.74;56.74;99278.38;4956094;28;20105;-83
2021/08/08 01:44:35;;;;;;;4.28;2.97;;;;;;;23.74;56.28;99270.38;4956194;28;20051;-82
2021/08/08 01:47:06;;;;;;;4.95;2.50;;;;;;;23.53;57.00;99269.25;4955825;28;20049;-83
2021/08/08 01:49:34;;;;;;;4.53;2.42;;;;;;;23.37;57.49;99269.44;4954994;28;20383;-82
2021/08/08 01:52:06;;;;;;;3.50;2.47;;;;;;;23.16;57.76;99272.81;4955991;28;20082;-83
2021/08/08 01:54:42;;;;;;;6.10;3.95;;;;;;;23.46;55.59;99268.34;4956258;28;20051;-83
2021/08/08 01:57:14;;;;;;;5.93;3.22;;;;;;;23.64;55.04;99267.19;4955916;28;20410;-82
2021/08/08 01:59:45;;;;;;;5.47;3.65;;;;;;;23.52;55.39;99261.47;4955832;28;20050;-82
2021/08/08 02:02:13;;;;;;;5.88;3.03;;;;;;;23.44;55.67;99266.91;4955767;28;20074;-81
2021/08/08 02:04:45;;;;;;;6.00;3.10;;;;;;;23.42;55.52;99269.72;4956162;28;20489;-82
2021/08/08 02:07:17;;;;;;;3.45;2.83;;;;;;;23.25;56.30;99266.41;4955505;28;20047;-80
2021/08/08 02:09:49;;;;;;;5.80;3.10;;;;;;;23.15;56.87;99271.16;4955879;28;20050;-81
2021/08/08 02:12:20;;;;;;;7.60;3.60;;;;;;;23.16;56.57;99274.63;4954734;28;20069;-82
2021/08/08 02:14:49;;;;;;;7.40;3.00;;;;;;;23.21;56.06;99269.59;4955800;28;20061;-82
2021/08/08 02:17:20;;;;;;;4.05;2.80;;;;;;;23.19;56.22;99267.13;4955935;28;20054;-82
2021/08/08 02:19:49;;;;;;;5.32;2.97;;;;;;;23.07;56.33;99262.47;4954656;28;20046;-83
2021/08/08 02:22:18;;;;;;;6.38;3.15;;;;;;;23.13;56.07;99262.56;4955878;28;20043;-83
2021/08/08 02:24:48;;;;;;;4.85;2.45;;;;;;;22.96;56.78;99256.56;4954664;28;20138;-83
2021/08/08 02:27:19;;;;;;;3.28;2.45;;;;;;;22.98;56.84;99257.19;4955887;28;20099;-82
2021/08/08 02:29:54;;;;;;;5.75;3.22;;;;;;;22.94;57.01;99255.91;4955326;28;20051;-83
2021/08/08 02:32:21;;;;;;;3.35;2.53;;;;;;;22.96;56.73;99256.56;4956052;28;20109;-84
2021/08/08 02:34:49;;;;;;;4.40;2.90;;;;;;;22.93;56.83;99254.25;4972964;28;20049;-82
2021/08/08 02:37:18;;;;;;;2.75;2.55;;;;;;;22.80;57.42;99251.38;4940272;28;20046;-82
2021/08/08 02:39:50;;;;;;;4.85;3.15;;;;;;;22.89;57.72;99252.13;4955349;28;20042;-83
2021/08/08 02:42:17;;;;;;;6.10;2.55;;;;;;;22.75;58.23;99253.75;4955696;28;20054;-83
2021/08/08 02:44:44;;;;;;;4.55;2.83;;;;;;;22.71;58.22;99257.75;4954597;28;20047;-80
2021/08/08 02:47:11;;;;;;;6.47;3.42;;;;;;;22.60;58.74;99258.19;4956048;28;20039;-82
2021/08/08 02:49:39;;;;;;;6.32;3.50;;;;;;;22.46;59.48;99257.09;4958739;28;20097;-83
2021/08/08 02:52:07;;;;;;;3.80;3.13;;;;;;;22.40;59.75;99263.94;4958849;28;20074;-83
2021/08/08 02:54:34;;;;;;;6.07;2.97;;;;;;;22.43;59.54;99260.94;4959222;28;20038;-82
2021/08/08 02:57:01;;;;;;;10.00;3.40;;;;;;;22.54;59.32;99258.88;4957870;28;20039;-80
2021/08/08 02:59:28;;;;;;;3.53;3.03;;;;;;;22.55;59.88;99263.19;4958644;28;20042;-81
2021/08/08 03:01:57;;;;;;;5.10;3.75;;;;;;;22.56;59.80;99262.19;4958583;28;20046;-83
2021/08/08 03:04:24;;;;;;;9.77;3.13;;;;;;;22.77;59.39;99262.34;4958964;28;20046;-84
2021/08/08 03:06:52;;;;;;;3.50;2.83;;;;;;;22.67;59.93;99267.06;4958787;28;20378;-81
2021/08/08 03:09:21;;;;;;;7.63;3.38;;;;;;;22.63;60.12;99263.94;4976104;28;20043;-81
2021/08/08 03:11:47;;;;;;;3.72;2.75;;;;;;;22.56;60.63;99259.53;4942866;28;20493;-81
2021/08/08 03:14:18;;;;;;;4.13;3.35;;;;;;;22.22;61.63;99274.03;4958136;28;20090;-81
2021/08/08 03:16:47;;;;;;;4.65;2.95;;;;;;;22.36;61.17;99270.59;4958710;28;20125;-84
2021/08/08 03:19:17;;;;;;;4.75;3.03;;;;;;;22.41;61.56;99281.53;4975708;28;20038;-83
2021/08/08 03:21:45;;;;;;;6.60;3.45;;;;;;;22.47;61.60;99280.81;4958688;28;20050;-83
2021/08/08 03:24:12;;;;;;;5.50;3.38;;;;;;;22.23;62.58;99291.59;4958296;28;20082;-85
2021/08/08 03:26:39;;;;;;;6.97;2.78;;;;;;;22.23;62.67;99292.44;4958655;28;20047;-82
2021/08/08 03:29:09;;;;;;;5.57;2.72;;;;;;;22.36;62.62;99297.16;4958458;28;20038;-83
2021/08/08 03:31:37;;;;;;;5.85;3.03;;;;;;;22.28;63.21;99302.53;4953695;28;20047;-83
2021/08/08 03:34:05;;;;;;;9.68;3.45;;;;;;;22.27;63.40;99300.88;4950603;28;20549;-83
2021/08/08 03:36:32;;;;;;;10.02;3.03;;;;;;;22.36;62.91;99307.78;4973520;28;20412;-83
2021/08/08 03:38:59;;;;;;;9.02;3.90;;;;;;;22.47;62.28;99307.38;4963831;28;20042;-83
2021/08/08 03:41:27;;;;;;;7.80;3.10;;;;;;;22.35;62.93;99311.44;4967697;28;20134;-83
2021/08/08 03:43:54;;;;;;;6.97;4.03;;;;;;;22.36;63.42;99310.44;4979478;28;20046;-83
2021/08/08 03:46:20;;;;;;;11.13;3.42;;;;;;;22.29;64.44;99314.78;4960688;28;20055;-80
2021/08/08 03:48:47;;;;;;;9.63;4.22;;;;;;;22.25;65.52;99312.66;4960063;28;20051;-84
2021/08/08 03:51:14;;;;;;;7.65;3.65;;;;;;;22.38;65.75;99313.75;4977879;28;20101;-83
2021/08/08 03:53:41;;;;;;;6.25;3.97;;;;;;;22.32;66.03;99324.22;4958585;28;20051;-83
2021/08/08 03:56:08;;;;;;;6.28;3.53;;;;;;;22.15;66.44;99324.31;4959767;28;20054;-83
2021/08/08 03:58:35;;;;;;;6.88;3.78;;;;;;;22.13;66.90;99326.31;4964979;28;20078;-83
2021/08/08 04:01:03;;;;;;;6.38;3.78;;;;;;;22.20;66.71;99324.63;4963344;28;20046;-83
2021/08/08 04:03:34;;;;;;;13.00;4.55;;;;;;;22.15;67.53;99332.28;4963101;28;20042;-85
2021/08/08 04:06:01;;;;;;;4.57;3.35;;;;;;;22.18;67.37;99331.94;4978358;28;20046;-85
2021/08/08 04:08:28;;;;;;;8.10;4.20;;;;;;;22.09;68.08;99332.13;4961180;28;20047;-85
2021/08/08 04:10:55;;;;;;;6.32;3.45;;;;;;;22.18;67.69;99329.28;4958134;28;20038;-85
2021/08/08 04:13:24;;;;;;;4.93;3.15;;;;;;;22.16;68.09;99330.47;4957108;28;20072;-82
2021/08/08 04:15:51;;;;;;;3.80;2.85;;;;;;;22.17;67.86;99332.94;4955977;28;20057;-85
2021/08/08 04:18:18;;;;;;;5.90;3.17;;;;;;;22.13;68.21;99347.56;4957433;28;20053;-85
2021/08/08 04:20:49;;;;;;;5.32;3.30;;;;;;;22.15;68.16;99347.38;4957461;28;20047;-85
2021/08/08 04:23:17;;;;;;;5.00;3.30;;;;;;;22.26;67.86;99344.34;4975026;28;20039;-84
2021/08/08 04:25:45;;;;;;;9.95;4.05;;;;;;;22.17;68.22;99348.88;4957218;28;20409;-84
2021/08/08 04:28:12;;;;;;;6.00;3.75;;;;;;;22.23;67.89;99352.66;4956537;28;20078;-84
2021/08/08 04:30:40;;;;;;;7.68;3.88;;;;;;;22.35;67.66;99353.09;4956923;28;20039;-83
2021/08/08 04:33:07;;;;;;;6.70;4.10;;;;;;;22.26;68.07;99362.91;4974553;28;20064;-82
2021/08/08 04:35:37;;;;;;;8.65;3.45;;;;;;;22.22;68.30;99361.63;4959771;28;20085;-82
2021/08/08 04:38:05;;;;;;;8.80;3.75;;;;;;;22.18;68.21;99360.31;4960849;28;20043;-85
2021/08/08 04:40:34;;;;;;;5.57;3.25;;;;;;;22.25;68.19;99363.91;4969026;28;20042;-84
2021/08/08 04:43:05;;;;;;;9.63;4.43;;;;;;;22.15;68.96;99360.66;4959630;28;20081;-84
2021/08/08 04:45:33;;;;;;;7.63;4.18;;;;;;;22.09;69.26;99362.13;4968465;28;20062;-84
2021/08/08 04:48:00;;;;;;;7.20;3.78;;;;;;;22.17;69.22;99356.00;4957291;28;20037;-83
2021/08/08 04:50:29;;;;;;;9.40;3.58;;;;;;;22.33;68.64;99361.25;4954694;28;20110;-84
2021/08/08 04:52:56;;;;;;;10.82;4.45;;;;;;;22.41;68.50;99365.66;4966912;28;20175;-85
2021/08/08 04:55:23;;;;;;;6.50;3.60;;;;;;;22.31;69.31;99357.91;4942191;28;20123;-84
2021/08/08 04:57:50;;;;;;;4.10;3.22;;;;;;;22.27;69.74;99364.59;4958294;28;20443;-84
2021/08/08 05:00:20;;;;;;;7.55;3.78;;;;;;;22.37;69.50;99362.56;4956645;28;20457;-81
2021/08/08 05:02:48;;;;;;;6.97;3.88;;;;;;;22.49;69.33;99363.81;4961915;28;20405;-82
2021/08/08 05:05:16;;;;;;;11.45;3.47;;;;;;;22.52;68.88;99357.31;4957414;28;20165;-83
2021/08/08 05:07:45;;;;;;;7.88;3.30;;;;;;;22.42;69.59;99368.13;4960805;28;20572;-84
2021/08/08 05:10:15;;;;;;;12.88;3.70;;;;;;;22.49;69.92;99365.63;4963307;28;20120;-81
2021/08/08 05:12:45;;;;;;;7.35;3.88;;;;;;;22.53;69.61;99366.94;4959031;28;20493;-82
2021/08/08 05:15:12;;;;;;;11.57;4.30;;;;;;;22.46;69.95;99366.78;4958529;28;20084;-81
2021/08/08 05:17:39;;;;;;;6.47;3.85;;;;;;;22.52;70.10;99361.78;4956676;28;20097;-81
2021/08/08 05:20:06;;;;;;;7.38;4.25;;;;;;;22.61;69.81;99363.41;4957891;28;20046;-81
2021/08/08 05:22:34;;;;;;;4.65;4.25;;;;;;;22.67;69.37;99368.00;4965698;28;20389;-82
2021/08/08 05:25:02;;;;;;;10.93;4.10;;;;;;;22.77;69.35;99367.78;4961327;28;20153;-82
2021/08/08 05:27:29;;;;;;;7.35;4.32;;;;;;;22.81;69.29;99374.41;4964207;28;20401;-82
2021/08/08 05:29:57;;;;;;;10.13;4.10;;;;;;;22.82;69.36;99368.91;4955669;28;20074;-82
2021/08/08 05:32:25;;;;;;;7.68;3.90;;;;;;;22.87;69.13;99374.53;4970610;28;20057;-81
2021/08/08 05:34:52;;;;;;;5.07;3.42;;;;;;;23.15;68.18;99376.66;4960144;28;20220;-81
2021/08/08 05:37:19;;;;;;;6.95;3.33;;;;;;;23.17;67.83;99379.97;4952858;29;20040;-82
2021/08/08 05:39:46;;;;;;;8.35;3.85;;;;;;;23.10;68.46;99377.19;4953323;29;20364;-82
2021/08/08 05:42:16;;;;;;;6.43;3.25;;;;;;;23.19;68.67;99381.47;4952587;28;20054;-83
2021/08/08 05:44:43;;;;;;;6.65;3.58;;;;;;;23.17;68.34;99380.81;4959745;28;20047;-83
2021/08/08 05:47:10;;;;;;;10.77;4.13;;;;;;;23.25;68.51;99383.41;4955860;28;20050;-81
2021/08/08 05:49:37;;;;;;;8.98;3.58;;;;;;;23.29;68.45;99391.03;4956239;28;20417;-82
2021/08/08 05:52:06;;;;;;;8.02;3.92;;;;;;;23.13;69.24;99399.97;4965074;28;20038;-83
2021/08/08 05:54:33;;;;;;;10.52;3.95;;;;;;;23.27;68.40;99386.69;4971167;28;20520;-83
2021/08/08 05:57:00;;;;;;;6.35;3.45;;;;;;;23.38;68.12;99382.78;4956138;28;20053;-84
2021/08/08 05:59:27;;;;;;;7.45;2.97;;;;;;;23.40;68.12;99388.75;4955736;28;20477;-84
2021/08/08 06:01:55;;;;;;;7.30;4.13;;;;;;;23.49;67.77;99395.66;4959153;28;20101;-81
2021/08/08 06:04:22;;;;;;;5.97;3.72;;;;;;;23.65;67.50;99393.88;4975853;28;20072;-83
2021/08/08 06:06:50;;;;;;;7.35;3.05;;;;;;;23.72;67.17;99397.47;4946743;28;20054;-83
2021/08/08 06:09:17;;;;;;;12.77;4.28;;;;;;;23.79;67.01;99406.38;4946415;28;20055;-83
2021/08/08 06:11:44;;;;;;;8.52;3.60;;;;;;;23.93;66.86;99408.22;4965110;28;20059;-82
2021/08/08 06:14:11;;;;;;;6.55;2.72;;;;;;;24.05;66.51;99398.75;4966560;28;20101;-82
2021/08/08 06:16:37;;;;;;;12.02;3.05;;;;;;;24.10;66.49;99405.38;4976482;28;20044;-82
2021/08/08 06:19:04;;;;;;;11.52;4.32;;;;;;;24.07;66.81;99409.22;4946608;28;20506;-83
2021/08/08 06:21:31;;;;;;;7.68;3.65;;;;;;;24.13;66.75;99402.31;4953069;28;20121;-81
2021/08/08 06:24:00;;;;;;;8.60;4.05;;;;;;;24.20;66.93;99411.25;4956074;28;20043;-86
2021/08/08 06:26:27;;;;;;;23.80;5.60;;;;;;;24.32;66.82;99409.75;4973420;28;20055;-87
2021/08/08 06:28:55;;;;;;;17.23;3.53;;;;;;;24.34;67.26;99410.38;4961639;28;20561;-84
2021/08/08 06:31:23;;;;;;;16.45;3.90;;;;;;;24.44;66.85;99405.63;4961319;28;20054;-82
2021/08/08 06:33:51;;;;;;;10.82;3.95;;;;;;;24.56;66.25;99412.16;4952662;28;20055;-84
2021/08/08 06:36:18;;;;;;;12.43;3.00;;;;;;;24.81;65.43;99407.28;4955045;28;20051;-83
2021/08/08 06:38:45;;;;;;;8.80;3.20;;;;;;;25.08;64.19;99413.75;4971118;28;20550;-83
2021/08/08 06:41:12;;;;;;;4.07;2.60;;;;;;;25.20;63.16;99413.25;4955991;28;20053;-83
2021/08/08 06:43:39;;;;;;;6.38;3.45;;;;;;;25.34;61.58;99417.69;4972249;28;20066;-85
2021/08/08 06:46:07;;;;;;;7.35;3.58;;;;;;;25.29;60.53;99425.44;4952114;28;20093;-84
2021/08/08 06:48:35;;;;;;;4.40;2.92;;;;;;;25.57;59.39;99417.47;4971127;28;20464;-84
2021/08/08 06:51:02;;;;;;;4.75;2.88;;;;;;;25.81;56.72;99424.22;4951764;28;20054;-87
2021/08/08 06:53:30;;;;;;;8.82;3.35;;;;;;;25.92;56.26;99426.34;4955900;28;20046;-85
2021/08/08 06:55:59;;;;;;;7.00;3.60;;;;;;;25.92;56.81;99433.53;4965870;28;20067;-84
2021/08/08 06:58:27;;;;;;;7.75;2.92;;;;;;;25.97;56.46;99428.44;4959249;28;20051;-84
2021/08/08 07:00:54;;;;;;;6.05;3.35;;;;;;;25.99;56.01;99427.22;4957550;28;20046;-83
2021/08/08 07:03:21;;;;;;;9.48;3.30;;;;;;;26.12;55.04;99442.50;4972674;28;20043;-85
2021/08/08 07:05:48;;;;;;;6.60;2.95;;;;;;;26.22;54.68;99442.16;4957340;28;20038;-85
2021/08/08 07:08:15;;;;;;;8.30;3.00;;;;;;;26.37;54.08;99446.34;4965331;28;20541;-84
2021/08/08 07:10:41;;;;;;;5.82;2.78;;;;;;;26.41;53.56;99456.63;4962019;28;20486;-84
2021/08/08 07:13:08;;;;;;;3.83;2.85;;;;;;;26.51;53.24;99451.78;4947469;28;20062;-86
2021/08/08 07:15:36;;;;;;;4.97;3.38;;;;;;;26.37;53.58;99453.53;4962032;28;20050;-84
2021/08/08 07:18:03;;;;;;;3.95;3.13;;;;;;;26.35;53.24;99447.56;4959042;28;20050;-83
2021/08/08 07:20:30;;;;;;;7.32;2.95;;;;;;;26.47;53.08;99447.84;4942693;28;20114;-86
2021/08/08 07:22:57;;;;;;;4.93;3.10;;;;;;;26.46;53.04;99455.03;4950231;28;20047;-88
2021/08/08 07:25:25;;;;;;;10.65;3.33;;;;;;;26.58;52.42;99449.94;4969713;28;20078;-83
2021/08/08 07:27:52;;;;;;;7.38;3.50;;;;;;;26.59;52.83;99448.94;4956695;28;20109;-84
2021/08/08 07:30:19;;;;;;;8.52;3.05;;;;;;;26.73;51.87;99455.16;4955257;28;20062;-87
2021/08/08 07:32:45;;;;;;;6.72;2.97;;;;;;;26.71;51.63;99457.22;4941538;28;20135;-89
2021/08/08 07:35:12;;;;;;;5.50;2.92;;;;;;;26.77;51.45;99456.41;4944367;28;20040;-90
2021/08/08 07:40:42;;;;;;;7.43;2.97;;;;;;;26.50;52.32;99461.66;5188644;23;20408;-89
2021/08/08 07:43:10;;;;;;;3.20;2.55;;;;;;;26.72;51.78;99464.19;4852341;29;20144;-80
2021/08/08 07:45:38;;;;;;;4.53;2.97;;;;;;;26.71;51.67;99463.38;4851191;29;20098;-80
2021/08/08 07:48:06;;;;;;;9.93;2.70;;;;;;;26.67;51.35;99472.81;4854574;29;20456;-81
2021/08/08 07:50:32;;;;;;;7.25;3.03;;;;;;;26.67;51.13;99466.66;4851103;29;20045;-80
2021/08/08 07:53:00;;;;;;;10.45;3.20;;;;;;;26.76;51.34;99465.44;4848825;29;20061;-80
2021/08/08 07:55:27;;;;;;;5.93;2.60;;;;;;;26.86;49.70;99463.22;4851937;29;20042;-80
2021/08/08 07:57:53;;;;;;;7.43;3.20;;;;;;;26.87;49.90;99465.69;4852120;29;20041;-79
2021/08/08 08:00:21;;;;;;;5.05;2.63;;;;;;;26.97;49.61;99462.63;4857530;29;20128;-83
2021/08/08 08:02:54;;;;;;;4.63;2.58;;;;;;;26.94;49.65;99463.03;4848093;29;20045;-78
2021/08/08 08:05:23;;;;;;;11.10;3.40;;;;;;;27.08;49.97;99459.41;4851104;29;20049;-78
2021/08/08 08:07:50;;;;;;;8.52;2.97;;;;;;;27.12;49.37;99457.97;4842320;29;20037;-80
2021/08/08 08:10:17;;;;;;;7.15;3.25;;;;;;;27.07;49.23;99463.13;4853857;29;20046;-80
2021/08/08 08:12:44;;;;;;;5.07;2.63;;;;;;;27.18;49.15;99466.22;4853214;29;20060;-80
2021/08/08 08:15:11;;;;;;;8.57;3.53;;;;;;;27.12;49.16;99468.69;4845845;29;20533;-79
2021/08/08 08:17:38;;;;;;;8.13;3.08;;;;;;;27.13;49.60;99467.66;4855460;29;20045;-79
2021/08/08 08:20:05;;;;;;;5.15;2.75;;;;;;;27.01;49.67;99468.41;4844605;29;20050;-80
2021/08/08 08:22:32;;;;;;;8.07;3.00;;;;;;;27.14;49.48;99466.63;4858737;29;20038;-79
2021/08/08 08:24:59;;;;;;;6.13;2.88;;;;;;;27.17;49.09;99467.25;4849587;29;20136;-84
2021/08/08 08:27:26;;;;;;;4.68;2.80;;;;;;;27.28;48.57;99466.66;4843221;29;20438;-79
2021/08/08 08:29:52;;;;;;;10.27;3.10;;;;;;;27.11;49.06;99459.00;4852061;29;20052;-79
2021/08/08 08:32:19;;;;;;;5.68;3.60;;;;;;;27.12;49.60;99465.19;4843998;29;20053;-79
2021/08/08 08:34:46;;;;;;;9.07;4.00;;;;;;;27.33;49.33;99473.03;4844263;29;20456;-80
2021/08/08 08:37:12;;;;;;;9.18;3.65;;;;;;;27.30;49.11;99467.25;4845898;29;20089;-80
2021/08/08 08:39:39;;;;;;;9.07;3.17;;;;;;;27.40;48.64;99467.69;4846829;29;20573;-79
2021/08/08 08:42:07;;;;;;;9.07;3.60;;;;;;;27.55;47.89;99449.59;4852499;29;20398;-78
2021/08/08 08:44:35;;;;;;;9.02;3.58;;;;;;;27.44;48.44;99463.59;4847416;29;20045;-78
2021/08/08 08:47:02;;;;;;;5.10;3.25;;;;;;;27.51;48.04;99469.75;4868629;29;20127;-80
2021/08/08 08:49:30;;;;;;;6.43;3.85;;;;;;;27.69;47.82;99456.56;4854415;29;20045;-80
2021/08/08 08:52:04;;;;;;;6.30;3.35;;;;;;;27.71;47.21;99452.91;4851343;29;20072;-80
2021/08/08 08:54:33;;;;;;;12.43;3.65;;;;;;;27.78;47.30;99448.34;4846588;29;20101;-80
2021/08/08 08:57:00;;;;;;;6.68;3.30;;;;;;;27.74;46.78;99453.28;4856237;29;20049;-80
2021/08/08 08:59:28;;;;;;;6.57;3.40;;;;;;;27.67;47.25;99461.31;4850372;29;20053;-80
2021/08/08 09:01:57;;;;;;;8.57;3.20;;;;;;;27.76;47.45;99455.78;4851391;29;20423;-80
2021/08/08 09:04:24;;;;;;;6.05;2.92;;;;;;;27.93;46.26;99457.00;4844803;29;20106;-77
2021/08/08 09:06:51;;;;;;;3.92;3.25;;;;;;;27.65;47.27;99467.91;4848973;29;20508;-80
2021/08/08 09:09:19;;;;;;;5.00;3.10;;;;;;;27.60;47.61;99463.16;4845486;29;20076;-77
2021/08/08 09:11:47;;;;;;;7.38;3.38;;;;;;;27.58;47.09;99459.84;4847320;29;20049;-79
2021/08/08 09:14:18;;;;;;;9.63;3.22;;;;;;;27.69;47.18;99461.91;4839851;29;20552;-78
2021/08/08 09:16:53;;;;;;;8.45;2.90;;;;;;;27.90;45.83;99460.91;4844902;29;20052;-78
2021/08/08 09:19:29;;;;;;;8.05;3.20;;;;;;;27.91;46.57;99451.00;4848115;29;20045;-79
2021/08/08 09:22:01;;;;;;;6.03;3.58;;;;;;;28.00;45.93;99449.75;4861963;29;20128;-74
2021/08/08 09:24:33;;;;;;;13.75;3.20;;;;;;;28.27;45.39;99455.88;4845642;29;20098;-79
2021/08/08 09:27:12;;;;;;;9.80;3.67;;;;;;;28.04;45.98;99448.31;4856452;29;20049;-79
2021/08/08 09:29:44;;;;;;;14.05;5.47;;;;;;;27.89;46.42;99439.69;4857170;29;20045;-79
2021/08/08 09:32:13;;;;;;;17.73;4.40;;;;;;;28.35;44.57;99439.63;4845790;29;20071;-79
2021/08/08 09:34:42;;;;;;;7.53;3.22;;;;;;;28.40;44.57;99436.31;4841912;29;20446;-77
2021/08/08 09:37:22;;;;;;;7.05;2.85;;;;;;;28.54;44.37;99410.25;4847284;29;20041;-80
2021/08/08 09:39:51;;;;;;;6.00;3.13;;;;;;;28.36;44.46;99440.44;4848905;29;20401;-80
2021/08/08 09:42:24;;;;;;;5.57;3.10;;;;;;;28.36;44.43;99441.25;4857666;29;20105;-78
2021/08/08 09:44:53;;;;;;;4.43;2.70;;;;;;;28.29;44.34;99450.34;4856138;29;20412;-82
2021/08/08 09:47:22;;;;;;;6.03;2.90;;;;;;;28.22;45.04;99460.22;4846700;29;20051;-85
2021/08/08 09:50:04;;;;;;;7.43;3.67;;;;;;;28.22;45.23;99457.56;4854183;29;20062;-85
2021/08/08 09:52:35;;;;;;;5.50;3.40;;;;;;;28.16;45.34;99459.22;4849708;29;20054;-84
2021/08/08 09:55:15;;;;;;;5.22;3.42;;;;;;;28.28;44.71;99454.84;4852763;29;20042;-84
2021/08/08 09:57:42;;;;;;;5.03;3.33;;;;;;;28.23;45.41;99452.00;4854048;29;20038;-85
2021/08/08 10:00:09;;;;;;;4.47;3.35;;;;;;;28.19;45.08;99451.59;4853753;29;20034;-83
2021/08/08 10:02:40;;;;;;;3.83;3.05;;;;;;;28.17;45.13;99447.47;4851738;29;20773;-85
2021/08/08 10:05:07;;;;;;;4.45;2.95;;;;;;;28.48;44.19;99444.09;4857314;29;20057;-85
2021/08/08 10:07:34;;;;;;;4.78;3.15;;;;;;;28.58;43.12;99439.09;4849781;29;20089;-83
2021/08/08 10:10:01;;;;;;;6.38;3.33;;;;;;;28.43;44.08;99446.59;4853824;29;20042;-87
2021/08/08 10:12:34;;;;;;;8.25;3.03;;;;;;;28.79;42.80;99451.38;4854505;29;20552;-85
2021/08/08 10:15:01;;;;;;;6.97;2.90;;;;;;;28.86;42.70;99448.66;4851700;29;20389;-81
2021/08/08 10:17:31;;;;;;;9.30;3.00;;;;;;;28.95;42.70;99450.09;4854907;29;20400;-86
2021/08/08 10:19:58;;;;;;;6.18;2.78;;;;;;;28.65;43.34;99453.28;4848243;29;20102;-85
2021/08/08 10:22:25;;;;;;;4.55;3.13;;;;;;;28.42;43.12;99453.00;4850215;29;20497;-83
2021/08/08 10:24:58;;;;;;;7.22;3.13;;;;;;;28.39;44.16;99456.06;4849469;29;20052;-85
2021/08/08 10:27:25;;;;;;;8.10;3.90;;;;;;;28.47;43.46;99461.22;4855314;29;20101;-86
2021/08/08 10:29:55;;;;;;;9.13;3.35;;;;;;;28.68;41.12;99468.97;4856221;29;20065;-86
2021/08/08 10:32:26;;;;;;;6.00;2.63;;;;;;;28.73;42.46;99459.47;4859125;29;20554;-89
2021/08/08 10:34:54;;;;;;;3.85;2.45;;;;;;;28.86;41.43;99465.56;4859995;29;20046;-91
2021/08/08 10:37:23;;;;;;;3.90;2.58;;;;;;;28.77;42.53;99460.69;4860765;29;20072;-90
2021/08/08 10:39:51;;;;;;;4.90;2.88;;;;;;;28.51;42.74;99457.09;4858016;29;20049;-90
2021/08/08 10:42:19;;;;;;;7.07;3.17;;;;;;;28.57;42.71;99458.09;4854681;29;20087;-87
2021/08/08 10:44:59;;;;;;;7.28;2.60;;;;;;;28.69;40.92;99464.44;4852213;29;20049;-91
2021/08/08 10:47:31;;;;;;;3.70;2.60;;;;;;;28.58;41.93;99454.38;4852697;29;20113;-83
2021/08/08 10:50:12;;;;;;;3.28;2.28;;;;;;;28.33;42.30;99454.25;4853662;29;20049;-89
2021/08/08 10:52:40;;;;;;;2.78;2.40;;;;;;;28.48;41.31;99454.00;4854569;29;20060;-87
2021/08/08 10:55:08;;;;;;;7.35;2.80;;;;;;;28.75;40.48;99454.72;4848441;29;20054;-91
2021/08/08 10:57:42;;;;;;;5.22;2.85;;;;;;;28.54;38.74;99459.31;4850130;29;20092;-91
2021/08/08 11:00:13;;;;;;;3.72;3.10;;;;;;;28.66;40.55;99446.09;4857278;29;20049;-90
2021/08/08 11:02:44;;;;;;;3.05;2.75;;;;;;;28.65;37.70;99450.63;4860743;29;20042;-91
2021/08/08 11:05:17;;;;;;;4.95;2.75;;;;;;;29.15;36.94;99447.31;4862605;29;20053;-90
2021/08/08 11:07:46;;;;;;;2.47;2.28;;;;;;;29.02;35.62;99450.06;4862449;29;20077;-90
2021/08/08 11:10:27;;;;;;;6.13;2.78;;;;;;;28.95;37.90;99444.72;4862438;29;20449;-91
2021/08/08 11:12:55;;;;;;;3.83;2.42;;;;;;;29.38;33.36;99433.28;4862573;29;20523;-90
2021/08/08 11:15:34;;;;;;;3.72;1.90;;;;;;;29.61;34.35;99444.28;4862608;29;20452;-92
2021/08/08 11:18:02;;;;;;;3.75;2.33;;;;;;;29.66;32.50;99447.13;4845488;29;20053;-91
2021/08/08 11:20:30;;;;;;;2.90;2.10;;;;;;;29.07;33.93;99452.91;4860248;29;20198;-91
2021/08/08 11:22:58;;;;;;;6.13;2.63;;;;;;;29.03;36.35;99435.59;4860713;29;20060;-90
2021/08/08 11:25:26;;;;;;;5.38;2.53;;;;;;;29.36;33.72;99435.38;4861024;29;20049;-90
2021/08/08 11:27:54;;;;;;;5.85;3.42;;;;;;;29.03;36.69;99447.16;4860677;29;20045;-91
2021/08/08 11:30:21;;;;;;;4.28;2.15;;;;;;;29.00;37.15;99441.41;4860413;29;20089;-90
2021/08/08 11:32:54;;;;;;;4.53;2.58;;;;;;;28.84;37.27;99431.97;4859686;29;20053;-90
2021/08/08 11:35:29;;;;;;;3.33;2.80;;;;;;;28.74;36.83;99432.44;4861742;29;20045;-91
2021/08/08 11:37:59;;;;;;;2.92;2.33;;;;;;;28.73;38.27;99438.03;4862293;29;20060;-92
2021/08/08 11:40:27;;;;;;;5.70;2.42;;;;;;;28.67;37.77;99442.38;4860415;29;20053;-88
2021/08/08 11:42:57;;;;;;;3.20;2.42;;;;;;;28.51;38.18;99438.31;4861943;29;20045;-92